Time;durP1;ratioP1;P1;durP2;ratioP2;P2;SDS_P1;SDS_P2;PMS_P1;PMS_P2;Temp;Humidity;BMP_temperature;BMP_pressure;BME280_temperature;BME280_humidity;BME280_pressure;Samples;Min_cycle;Max_cycle;Signal;HPM_P1;HPM_P2
2022/02/12 00:01:11;;;;;;;;;;;;;;;-139.48;100.00;61774.03;5033107;28;20136;-72
2022/02/12 00:03:54;;;;;;;25.25;8.25;;;;;;;-139.48;100.00;61774.03;5017904;28;19927;-74
2022/02/12 00:06:38;;;;;;;;;;;;;;;-139.48;100.00;61774.03;5033135;28;20496;-69
2022/02/12 00:09:22;;;;;;;18.10;8.65;;;;;;;-139.48;100.00;61774.03;5017694;28;19943;-72
2022/02/12 00:12:06;;;;;;;14.10;7.57;;;;;;;-139.48;100.00;61774.03;5017827;28;20068;-72
2022/02/12 00:14:51;;;;;;;16.88;7.05;;;;;;;-139.48;100.00;61774.03;5003838;28;20121;-72
2022/02/12 00:17:35;;;;;;;20.50;7.75;;;;;;;-139.48;100.00;61774.03;5017713;28;20076;-72
2022/02/12 00:20:19;;;;;;;18.80;9.63;;;;;;;-139.48;100.00;61774.03;5017679;28;20088;-73
2022/02/12 00:23:03;;;;;;;;;;;;;;;-139.48;100.00;61774.03;5018067;28;20111;-72
2022/02/12 00:25:47;;;;;;;15.45;6.63;;;;;;;-139.48;100.00;61774.03;5019917;28;20029;-72
2022/02/12 00:28:30;;;;;;;22.73;10.25;;;;;;;-139.48;100.00;61774.03;5024099;28;20068;-73
2022/02/12 00:31:14;;;;;;;;;;;;;;;-139.48;100.00;61774.03;5024656;28;20144;-69
2022/02/12 00:33:58;;;;;;;29.73;10.35;;;;;;;-139.48;100.00;61774.03;5023969;28;19947;-69
2022/02/12 00:36:42;;;;;;;;;;;;;;;-139.48;100.00;61774.03;5010759;28;20128;-71
2022/02/12 00:39:26;;;;;;;16.15;8.30;;;;;;;-139.48;100.00;61774.03;5039389;28;19920;-72
2022/02/12 00:42:11;;;;;;;15.40;7.18;;;;;;;-139.48;100.00;61774.03;5039019;28;20106;-73
2022/02/12 00:44:55;;;;;;;17.27;6.97;;;;;;;-139.48;100.00;61774.03;5039079;28;20052;-73
2022/02/12 00:47:40;;;;;;;12.70;6.55;;;;;;;-139.48;100.00;61774.03;5009957;28;20052;-73
2022/02/12 00:50:24;;;;;;;14.70;6.00;;;;;;;-139.48;100.00;61774.03;5023815;28;20459;-73
2022/02/12 00:53:07;;;;;;;;;;;;;;;-139.48;100.00;61774.03;5010499;28;20456;-71
2022/02/12 00:55:51;;;;;;;14.98;6.10;;;;;;;-139.48;100.00;61774.03;5039580;28;19959;-73
2022/02/12 00:58:35;;;;;;;;;;;;;;;-139.48;100.00;61774.03;5024149;28;20428;-74
2022/02/12 01:01:19;;;;;;;10.25;4.68;;;;;;;-139.48;100.00;61774.03;5024238;28;19919;-72
2022/02/12 01:04:04;;;;;;;14.75;5.82;;;;;;;-139.48;100.00;61774.03;5023575;28;20558;-73
2022/02/12 01:06:48;;;;;;;9.98;4.93;;;;;;;-139.48;100.00;61774.03;5009907;28;20527;-70
2022/02/12 01:09:33;;;;;;;11.20;5.32;;;;;;;-139.48;100.00;61774.03;5023835;28;20464;-71
2022/02/12 01:12:16;;;;;;;;;;;;;;;-139.48;100.00;61774.03;5024517;28;20386;-72
2022/02/12 01:15:00;;;;;;;16.27;6.78;;;;;;;-139.48;100.00;61774.03;5023853;28;20345;-73
2022/02/12 01:17:44;;;;;;;;;;;;;;;-139.48;100.00;61774.03;5023995;28;20056;-72
2022/02/12 01:20:28;;;;;;;12.57;6.30;;;;;;;-139.48;100.00;61774.03;5023844;28;19923;-72
2022/02/12 01:23:12;;;;;;;15.48;6.57;;;;;;;-139.48;100.00;61774.03;5009801;28;20091;-72
2022/02/12 01:25:56;;;;;;;;;;;;;;;-139.48;100.00;61774.03;5039136;28;20044;-71
2022/02/12 01:28:40;;;;;;;13.70;7.25;;;;;;;-139.48;100.00;61774.03;5038548;28;19924;-70
2022/02/12 01:31:23;;;;;;;;;;;;;;;-139.48;100.00;61774.03;5024110;28;20052;-72
2022/02/12 01:34:07;;;;;;;19.65;8.13;;;;;;;-139.48;100.00;61774.03;5023916;28;19919;-73
2022/02/12 01:36:51;;;;;;;20.60;8.70;;;;;;;-139.48;100.00;61774.03;5037376;28;20052;-73
2022/02/12 01:39:36;;;;;;;20.65;8.82;;;;;;;-139.48;100.00;61774.03;5035238;28;20052;-70
2022/02/12 01:42:20;;;;;;;23.00;9.50;;;;;;;-139.48;100.00;61774.03;5020134;28;20142;-72
2022/02/12 01:45:04;;;;;;;17.90;8.60;;;;;;;-139.48;100.00;61774.03;5006969;28;20129;-72
2022/02/12 01:47:51;;;;;;;21.77;8.68;;;;;;;-139.48;100.00;61774.03;5020326;28;20068;-69
2022/02/12 01:50:36;;;;;;;17.90;8.75;;;;;;;-139.48;100.00;61774.03;5020561;28;20083;-73
2022/02/12 01:53:21;;;;;;;18.92;7.97;;;;;;;-139.48;100.00;61774.03;5020177;28;20179;-70
2022/02/12 01:56:06;;;;;;;20.98;8.88;;;;;;;-139.48;100.00;61774.03;5035424;28;20048;-71
2022/02/12 01:58:50;;;;;;;17.08;8.82;;;;;;;-139.48;100.00;61774.03;5020170;28;20052;-71
2022/02/12 02:01:34;;;;;;;;;;;;;;;-139.48;100.00;61774.03;5006803;28;20056;-72
2022/02/12 02:04:18;;;;;;;18.75;8.02;;;;;;;-139.48;100.00;61774.03;5020069;28;20241;-74
2022/02/12 02:07:02;;;;;;;26.33;8.27;;;;;;;-139.48;100.00;61774.03;5020263;28;20044;-73
2022/02/12 02:09:47;;;;;;;27.90;10.68;;;;;;;-139.48;100.00;61774.03;5006219;28;20075;-71
2022/02/12 02:12:31;;;;;;;17.98;9.88;;;;;;;-139.48;100.00;61774.03;5020010;28;20044;-72
2022/02/12 02:15:15;;;;;;;21.65;9.70;;;;;;;-139.48;100.00;61774.03;5019717;28;20051;-73
2022/02/12 02:17:59;;;;;;;;;;;;;;;-139.48;100.00;61774.03;5035080;28;20179;-72
2022/02/12 02:20:43;;;;;;;13.57;8.70;;;;;;;-139.48;100.00;61774.03;5019563;28;19920;-73
2022/02/12 02:23:27;;;;;;;;;;;;;;;-139.48;100.00;61774.03;5006251;28;20052;-71
2022/02/12 02:26:12;;;;;;;27.15;10.23;;;;;;;-139.48;100.00;61774.03;5034684;28;19959;-72
2022/02/12 02:28:56;;;;;;;19.70;9.45;;;;;;;-139.48;100.00;61774.03;5020065;28;20048;-71
2022/02/12 02:31:40;;;;;;;;;;;;;;;-139.48;100.00;61774.03;5019982;28;20051;-72
2022/02/12 02:34:25;;;;;;;19.25;7.30;;;;;;;-139.48;100.00;61774.03;5019340;28;20361;-73
2022/02/12 02:37:08;;;;;;;19.60;9.68;;;;;;;-139.48;100.00;61774.03;5034155;28;20595;-71
2022/02/12 02:39:52;;;;;;;;;;;;;;;-139.48;100.00;61774.03;5020106;28;20184;-72
2022/02/12 02:42:39;;;;;;;18.42;9.52;;;;;;;-139.48;100.00;61774.03;5019071;28;19932;-73
2022/02/12 02:45:23;;;;;;;16.95;8.32;;;;;;;-139.48;100.00;61774.03;5019068;28;20464;-71
2022/02/12 02:48:10;;;;;;;22.95;10.23;;;;;;;-139.48;100.00;61774.03;5018849;28;20128;-73
2022/02/12 02:56:59;;;;;;;21.15;10.10;;;;;;;-139.48;100.00;61774.03;5021593;28;20083;-71
2022/02/12 02:59:43;;;;;;;;;;;;;;;-139.48;100.00;61774.03;5034489;28;20130;-73
2022/02/12 03:02:27;;;;;;;19.20;9.88;;;;;;;-139.48;100.00;61774.03;5033981;28;20335;-73
2022/02/12 03:05:11;;;;;;;;;;;;;;;-139.48;100.00;61774.03;5019552;28;20049;-73
2022/02/12 03:07:55;;;;;;;15.80;8.80;;;;;;;-139.48;100.00;61774.03;5018832;28;20292;-73
2022/02/12 03:10:39;;;;;;;21.08;10.75;;;;;;;-139.48;100.00;61774.03;5018628;28;20076;-73
2022/02/12 03:13:22;;;;;;;;;;;;;;;-139.48;100.00;61774.03;5034169;28;20125;-71
2022/02/12 03:16:08;;;;;;;18.65;9.98;;;;;;;-139.48;100.00;61774.03;5018905;28;20012;-72
2022/02/12 03:18:52;;;;;;;20.98;10.55;;;;;;;-139.48;100.00;61774.03;5018666;28;20576;-72
2022/02/12 03:21:36;;;;;;;23.38;11.70;;;;;;;-139.48;100.00;61774.03;5033659;28;20124;-72
2022/02/12 03:24:20;;;;;;;;;;;;;;;-139.48;100.00;61774.03;5018651;28;20096;-71
2022/02/12 03:27:05;;;;;;;23.95;11.50;;;;;;;-139.48;100.00;61774.03;5033430;28;20043;-72
2022/02/12 03:29:49;;;;;;;20.90;11.10;;;;;;;-139.48;100.00;61774.03;5033461;28;20191;-72
2022/02/12 03:32:33;;;;;;;23.38;11.88;;;;;;;-139.48;100.00;61774.03;5033446;28;20125;-73
2022/02/12 03:35:17;;;;;;;;;;;;;;;-139.48;100.00;61774.03;5018727;28;20055;-73
2022/02/12 03:38:15;;;;;;;26.85;11.82;;;;;;;-139.48;100.00;61774.03;5033258;28;20435;-71
2022/02/12 03:41:00;;;;;;;26.10;11.77;;;;;;;-139.48;100.00;61774.03;5004389;28;20060;-71
2022/02/12 03:43:44;;;;;;;27.60;12.93;;;;;;;-139.48;100.00;61774.03;5017922;28;20048;-73
2022/02/12 03:46:28;;;;;;;27.17;13.68;;;;;;;-139.48;100.00;61774.03;5018123;28;20417;-74
2022/02/12 03:49:12;;;;;;;;;;;;;;;-139.48;100.00;61774.03;5033548;28;20389;-72
2022/02/12 03:51:56;;;;;;;25.38;12.98;;;;;;;-139.48;100.00;61774.03;5033163;28;20003;-73
2022/02/12 03:54:40;;;;;;;;;;;;;;;-139.48;100.00;61774.03;5018479;28;20048;-71
2022/02/12 03:57:24;;;;;;;17.23;9.00;;;;;;;-139.48;100.00;61774.03;5017772;28;19998;-73
2022/02/12 04:00:09;;;;;;;27.40;13.27;;;;;;;-139.48;100.00;61774.03;5017438;28;20091;-71
2022/02/12 04:02:53;;;;;;;32.17;14.20;;;;;;;-139.48;100.00;61774.03;5004099;28;20100;-70
2022/02/12 04:05:38;;;;;;;29.85;13.23;;;;;;;-139.48;100.00;61774.03;5017975;28;20516;-72
2022/02/12 04:08:23;;;;;;;27.83;14.68;;;;;;;-139.48;100.00;61774.03;5017867;28;20080;-70
2022/02/12 04:11:07;;;;;;;31.75;15.02;;;;;;;-139.48;100.00;61774.03;5032833;28;20107;-71
2022/02/12 04:13:52;;;;;;;31.15;12.98;;;;;;;-139.48;100.00;61774.03;5017634;28;20171;-73
2022/02/12 04:16:36;;;;;;;30.75;12.80;;;;;;;-139.48;100.00;61774.03;5032684;28;20508;-72
2022/02/12 04:19:20;;;;;;;;;;;;;;;-139.48;100.00;61774.03;5018213;28;20040;-71
2022/02/12 04:22:04;;;;;;;31.85;14.13;;;;;;;-139.48;100.00;61774.03;5017724;28;19991;-70
2022/02/12 04:24:48;;;;;;;28.13;14.52;;;;;;;-139.48;100.00;61774.03;5032433;28;20091;-70
2022/02/12 04:27:32;;;;;;;34.17;15.65;;;;;;;-139.48;100.00;61774.03;5032214;28;20054;-73
2022/02/12 04:30:17;;;;;;;30.52;14.57;;;;;;;-139.48;100.00;61774.03;5003875;28;20047;-73
2022/02/12 04:33:01;;;;;;;33.40;15.82;;;;;;;-139.48;100.00;61774.03;5017844;28;20048;-72
2022/02/12 04:35:45;;;;;;;33.97;15.93;;;;;;;-139.48;100.00;61774.03;5017525;28;20045;-73
2022/02/12 04:38:28;;;;;;;;;;;;;;;-139.48;100.00;61774.03;5046625;22;20426;-75
2022/02/12 04:41:12;;;;;;;26.75;14.73;;;;;;;-139.48;100.00;61774.03;5031924;28;19963;-75
2022/02/12 04:43:56;;;;;;;;;;;;;;;-139.48;100.00;61774.03;5032746;28;20467;-75
2022/02/12 04:46:40;;;;;;;36.10;15.25;;;;;;;-139.48;100.00;61774.03;5017941;28;19920;-75
2022/02/12 04:49:25;;;;;;;36.67;16.02;;;;;;;-139.48;100.00;61774.03;5003938;28;20103;-75
2022/02/12 04:52:11;;;;;;;28.80;14.75;;;;;;;-139.48;100.00;61774.03;5032886;28;20052;-75
2022/02/12 04:54:55;;;;;;;39.88;17.73;;;;;;;-139.48;100.00;61774.03;5032859;28;20091;-75
2022/02/12 04:57:39;;;;;;;31.60;15.68;;;;;;;-139.48;100.00;61774.03;5017803;28;20051;-75
2022/02/12 05:00:23;;;;;;;33.80;15.68;;;;;;;-139.48;100.00;61774.03;5017384;28;20056;-75
2022/02/12 05:03:07;;;;;;;;;;;;;;;-139.48;100.00;61774.03;5033360;28;20071;-75
2022/02/12 05:05:51;;;;;;;27.10;15.27;;;;;;;-139.48;100.00;61774.03;5032574;28;20387;-75
2022/02/12 05:08:35;;;;;;;27.75;14.65;;;;;;;-139.48;100.00;61774.03;5032320;28;20076;-75
2022/02/12 05:11:19;;;;;;;34.30;16.45;;;;;;;-139.48;100.00;61774.03;5017204;28;20152;-75
2022/02/12 05:14:03;;;;;;;30.25;14.70;;;;;;;-139.48;100.00;61774.03;5020282;28;20072;-75
2022/02/12 05:16:47;;;;;;;32.35;15.65;;;;;;;-139.48;100.00;61774.03;5036155;28;20044;-75
2022/02/12 05:19:31;;;;;;;;;;;;;;;-139.48;100.00;61774.03;5021274;28;20044;-75
2022/02/12 05:22:15;;;;;;;33.17;15.70;;;;;;;-139.48;100.00;61774.03;5034715;28;20010;-75
2022/02/12 05:24:59;;;;;;;36.40;15.80;;;;;;;-139.48;100.00;61774.03;5020738;28;20052;-75
2022/02/12 05:27:43;;;;;;;35.58;15.50;;;;;;;-139.48;100.00;61774.03;5020838;28;20484;-75
2022/02/12 05:30:26;;;;;;;;;;;;;;;-139.48;100.00;61774.03;5036340;28;20100;-74
2022/02/12 05:33:10;;;;;;;32.78;15.65;;;;;;;-139.48;100.00;61774.03;5035536;28;19967;-74
2022/02/12 05:35:54;;;;;;;;;;;;;;;-139.48;100.00;61774.03;5021217;28;20080;-74
2022/02/12 05:38:40;;;;;;;36.13;15.68;;;;;;;-139.48;100.00;61774.03;5034233;28;19920;-74
2022/02/12 05:41:24;;;;;;;36.85;17.88;;;;;;;-139.48;100.00;61774.03;5020779;28;20053;-74
2022/02/12 05:44:08;;;;;;;35.22;16.80;;;;;;;-139.48;100.00;61774.03;5020513;28;20485;-75
2022/02/12 05:46:52;;;;;;;37.25;18.10;;;;;;;-139.48;100.00;61774.03;5020372;28;20048;-74
2022/02/12 05:49:36;;;;;;;34.30;17.33;;;;;;;-139.48;100.00;61774.03;5035257;28;20424;-74
2022/02/12 05:52:20;;;;;;;;;;;;;;;-139.48;100.00;61774.03;5020865;28;20052;-74
2022/02/12 05:55:04;;;;;;;38.53;18.55;;;;;;;-139.48;100.00;61774.03;5034137;28;20431;-75
2022/02/12 05:57:48;;;;;;;38.00;19.00;;;;;;;-139.48;100.00;61774.03;5020580;28;20080;-75
2022/02/12 06:00:32;;;;;;;41.13;17.75;;;;;;;-139.48;100.00;61774.03;5020288;28;20056;-75
2022/02/12 06:03:17;;;;;;;40.65;18.65;;;;;;;-139.48;100.00;61774.03;5019908;28;20052;-74
2022/02/12 06:06:00;;;;;;;39.70;18.33;;;;;;;-139.48;100.00;61774.03;5020053;28;20043;-75
2022/02/12 06:08:44;;;;;;;;;;;;;;;-139.48;100.00;61774.03;5035500;28;20570;-74
2022/02/12 06:11:28;;;;;;;38.97;18.02;;;;;;;-139.48;100.00;61774.03;5019835;28;20444;-74
2022/02/12 06:14:12;;;;;;;;;;;;;;;-139.48;100.00;61774.03;5006578;28;20040;-74
2022/02/12 06:16:58;;;;;;;37.92;19.25;;;;;;;-139.48;100.00;61774.03;5019686;28;19968;-75
2022/02/12 06:19:41;;;;;;;36.22;18.73;;;;;;;-139.48;100.00;61774.03;5034977;28;20485;-74
2022/02/12 06:22:27;;;;;;;;;;;;;;;-139.48;100.00;61774.03;5035485;28;20048;-75
2022/02/12 06:25:11;;;;;;;34.97;18.73;;;;;;;-139.48;100.00;61774.03;5033031;28;19967;-75
2022/02/12 06:27:55;;;;;;;40.83;19.52;;;;;;;-139.48;100.00;61774.03;5034683;28;20045;-74
2022/02/12 06:30:39;;;;;;;44.55;19.00;;;;;;;-139.48;100.00;61774.03;5005782;28;20087;-74
2022/02/12 06:33:23;;;;;;;45.65;21.50;;;;;;;-139.48;100.00;61774.03;5019709;28;20041;-75
2022/02/12 06:36:07;;;;;;;41.33;19.42;;;;;;;-139.48;100.00;61774.03;5019859;28;20490;-74
2022/02/12 06:38:50;;;;;;;41.85;19.67;;;;;;;-139.48;100.00;61774.03;5034290;28;20404;-75
2022/02/12 06:41:35;;;;;;;;;;;;;;;-139.48;100.00;61774.03;5019953;28;20099;-75
2022/02/12 06:44:19;;;;;;;41.85;20.63;;;;;;;-139.48;100.00;61774.03;5033338;28;19970;-74
2022/02/12 06:47:04;;;;;;;42.33;20.10;;;;;;;-139.48;100.00;61774.03;5019132;28;20535;-75
2022/02/12 06:49:47;;;;;;;44.70;21.45;;;;;;;-139.48;100.00;61774.03;5005213;28;20064;-74
2022/02/12 06:52:31;;;;;;;45.55;23.08;;;;;;;-139.48;100.00;61774.03;5019238;28;20056;-74
2022/02/12 06:55:15;;;;;;;41.38;21.85;;;;;;;-139.48;100.00;61774.03;5034097;28;20086;-76
2022/02/12 06:57:59;;;;;;;49.03;23.60;;;;;;;-139.48;100.00;61774.03;5018987;28;20052;-74
2022/02/12 07:00:43;;;;;;;43.78;21.98;;;;;;;-139.48;100.00;61774.03;5018880;28;20056;-74
2022/02/12 07:03:27;;;;;;;;;;;;;;;-139.48;100.00;61774.03;5019464;28;20144;-74
2022/02/12 07:06:11;;;;;;;31.88;15.70;;;;;;;-139.48;100.00;61774.03;5019276;28;19967;-75
2022/02/12 07:08:55;;;;;;;;;;;;;;;-139.48;100.00;61774.03;5019080;28;20520;-75
2022/02/12 07:11:39;;;;;;;54.00;24.58;;;;;;;-139.48;100.00;61774.03;5019210;28;20371;-75
2022/02/12 07:14:24;;;;;;;51.15;24.33;;;;;;;-139.48;100.00;61774.03;5033622;28;20041;-74
2022/02/12 07:17:09;;;;;;;51.60;24.67;;;;;;;-139.48;100.00;61774.03;5033695;28;20053;-74
2022/02/12 07:19:52;;;;;;;;;;;;;;;-139.48;100.00;61774.03;5019152;28;20477;-74
2022/02/12 07:22:39;;;;;;;49.25;22.40;;;;;;;-139.48;100.00;61774.03;5033427;28;19992;-75
2022/02/12 07:25:24;;;;;;;48.63;22.90;;;;;;;-139.48;100.00;61774.03;5033416;28;20516;-75
2022/02/12 07:28:07;;;;;;;;;;;;;;;-139.48;100.00;61774.03;5005129;28;20095;-74
2022/02/12 07:30:51;;;;;;;49.55;24.17;;;;;;;-139.48;100.00;61774.03;5018634;28;19920;-74
2022/02/12 07:33:35;;;;;;;52.47;25.30;;;;;;;-139.48;100.00;61774.03;5033498;28;20179;-74
2022/02/12 07:36:19;;;;;;;;;;;;;;;-139.48;100.00;61774.03;5033090;28;20099;-74
2022/02/12 07:39:03;;;;;;;51.67;24.13;;;;;;;-139.48;100.00;61774.03;5018139;28;19936;-74
2022/02/12 07:41:47;;;;;;;51.53;24.10;;;;;;;-139.48;100.00;61774.03;5018113;28;20103;-74
2022/02/12 07:44:30;;;;;;;;;;;;;;;-139.48;100.00;61774.03;5033610;28;20119;-74
2022/02/12 07:47:15;;;;;;;51.28;24.58;;;;;;;-139.48;100.00;61774.03;5033292;28;19920;-75
2022/02/12 07:49:59;;;;;;;45.60;22.98;;;;;;;-139.48;100.00;61774.03;5017925;28;20401;-74
2022/02/12 07:52:44;;;;;;;61.42;29.00;;;;;;;-139.48;100.00;61774.03;5018100;28;20095;-75
2022/02/12 07:55:30;;;;;;;56.85;30.63;;;;;;;-139.48;100.00;61774.03;5018231;28;20508;-74
2022/02/12 07:58:14;;;;;;;55.33;28.10;;;;;;;-139.48;100.00;61774.03;5018549;28;20144;-74
2022/02/12 08:00:58;;;;;;;;;;;;;;;-139.48;100.00;61774.03;5033499;28;20420;-74
2022/02/12 08:03:42;;;;;;;65.50;36.10;;;;;;;-139.48;100.00;61774.03;5018037;28;20293;-74
2022/02/12 08:09:31;;;;;;;64.90;32.60;;;;;;;-139.48;100.00;61774.03;5020550;28;20056;-75
2022/02/12 08:12:15;;;;;;;53.30;26.45;;;;;;;-139.48;100.00;61774.03;5004094;28;20099;-75
2022/02/12 08:14:58;;;;;;;;;;;;;;;-139.48;100.00;61774.03;5033037;28;20071;-75
2022/02/12 08:17:42;;;;;;;47.55;23.30;;;;;;;-139.48;100.00;61774.03;5017853;28;19959;-74
2022/02/12 08:20:26;;;;;;;;;;;;;;;-139.48;100.00;61774.03;5004390;28;20048;-74
2022/02/12 08:23:10;;;;;;;43.78;20.73;;;;;;;-139.48;100.00;61774.03;5017999;28;19967;-74
2022/02/12 08:25:54;;;;;;;;;;;;;;;-139.48;100.00;61774.03;5018219;28;20412;-74
2022/02/12 08:28:38;;;;;;;31.30;16.23;;;;;;;-139.48;100.00;61774.03;5031591;28;19944;-74
2022/02/12 08:31:22;;;;;;;;;;;;;;;-139.48;100.00;61774.03;5033402;28;20428;-74
2022/02/12 08:34:06;;;;;;;42.30;20.75;;;;;;;-139.48;100.00;61774.03;5017770;28;20383;-74
2022/02/12 08:36:50;;;;;;;;;;;;;;;-139.48;100.00;61774.03;5033079;28;20492;-74
2022/02/12 08:39:34;;;;;;;36.47;21.02;;;;;;;-139.48;100.00;61774.03;5031288;28;19975;-74
2022/02/12 08:42:20;;;;;;;;;;;;;;;-139.48;100.00;61774.03;5017873;28;20229;-74
2022/02/12 08:45:05;;;;;;;40.92;20.05;;;;;;;-139.48;100.00;61774.03;5031466;28;19920;-74
2022/02/12 08:47:49;;;;;;;40.38;21.63;;;;;;;-139.48;100.00;61774.03;5020365;28;20047;-74
2022/02/12 08:50:34;;;;;;;37.00;20.17;;;;;;;-139.48;100.00;61774.03;5021490;28;20135;-74
2022/02/12 08:53:18;;;;;;;36.15;19.90;;;;;;;-139.48;100.00;61774.03;5021725;28;20051;-74
2022/02/12 08:56:02;;;;;;;;;;;;;;;-139.48;100.00;61774.03;5021653;28;20389;-74
2022/02/12 08:58:45;;;;;;;28.02;15.60;;;;;;;-139.48;100.00;61774.03;5036330;28;20293;-74
2022/02/12 09:01:29;;;;;;;;;;;;;;;-139.48;100.00;61774.03;5036636;28;20083;-73
2022/02/12 09:04:13;;;;;;;25.73;14.98;;;;;;;-139.48;100.00;61774.03;5036356;28;19924;-74
2022/02/12 09:06:58;;;;;;;31.63;17.42;;;;;;;-139.48;100.00;61774.03;5036055;28;20111;-74
2022/02/12 09:09:42;;;;;;;31.95;17.08;;;;;;;-139.48;100.00;61774.03;5021132;28;20141;-72
2022/02/12 09:12:26;;;;;;;41.15;17.15;;;;;;;-139.48;100.00;61774.03;5021520;28;20559;-74
2022/02/12 09:15:10;;;;;;;29.45;16.48;;;;;;;-139.48;100.00;61774.03;5036282;28;20083;-74
2022/02/12 09:17:54;;;;;;;;;;;;;;;-139.48;100.00;61774.03;5021485;28;20048;-73
2022/02/12 09:20:38;;;;;;;29.20;15.05;;;;;;;-139.48;100.00;61774.03;5034885;28;20405;-74
2022/02/12 09:23:23;;;;;;;23.55;13.57;;;;;;;-139.48;100.00;61774.03;5021114;28;20129;-74
2022/02/12 09:26:07;;;;;;;25.70;13.20;;;;;;;-139.48;100.00;61774.03;5021113;28;20067;-73
2022/02/12 09:28:51;;;;;;;22.30;14.75;;;;;;;-139.48;100.00;61774.03;5036023;28;20198;-75
2022/02/12 09:31:35;;;;;;;25.55;16.10;;;;;;;-139.48;100.00;61774.03;5021000;28;20051;-72
2022/02/12 09:34:18;;;;;;;22.63;15.30;;;;;;;-139.48;100.00;61774.03;5035851;28;20083;-72
2022/02/12 09:37:02;;;;;;;;;;;;;;;-139.48;100.00;61774.03;5036296;28;20048;-72
2022/02/12 09:39:46;;;;;;;21.40;14.85;;;;;;;-139.48;100.00;61774.03;5035413;28;19924;-72
2022/02/12 09:42:31;;;;;;;19.95;14.07;;;;;;;-139.48;100.00;61774.03;5006756;28;20471;-72
2022/02/12 09:45:15;;;;;;;19.48;14.68;;;;;;;-139.48;100.00;61774.03;5035480;28;20096;-73
2022/02/12 09:47:59;;;;;;;22.15;15.57;;;;;;;-139.48;100.00;61774.03;5035440;28;20416;-72
2022/02/12 09:50:44;;;;;;;21.73;15.85;;;;;;;-139.48;100.00;61774.03;5020626;28;20048;-72
2022/02/12 09:53:29;;;;;;;19.65;14.55;;;;;;;-139.48;100.00;61774.03;5020646;28;20177;-72
2022/02/12 09:56:13;;;;;;;20.80;14.70;;;;;;;-139.48;100.00;61774.03;5006576;28;20091;-72
2022/02/12 09:58:56;;;;;;;18.45;14.50;;;;;;;-139.48;100.00;61774.03;5034518;28;20075;-73
2022/02/12 10:01:40;;;;;;;17.73;13.65;;;;;;;-139.48;100.00;61774.03;5035145;28;20052;-72
2022/02/12 10:04:25;;;;;;;;;;;;;;;-139.48;100.00;61774.03;5035338;28;20052;-72
2022/02/12 10:07:25;;;;;;;;;;;;;;;-139.48;100.00;61774.03;5035721;28;20375;-72
2022/02/12 10:10:14;;;;;;;15.35;12.52;;;;;;;-139.48;100.00;61774.03;5035157;28;19963;-73
2022/02/12 10:13:24;;;;;;;17.13;13.38;;;;;;;-139.48;100.00;61774.03;5034923;28;20084;-73
2022/02/12 10:16:09;;;;;;;15.73;11.45;;;;;;;-139.48;100.00;61774.03;5006770;28;20049;-72
2022/02/12 10:18:57;;;;;;;13.20;10.85;;;;;;;-139.48;100.00;61774.03;5020435;28;20102;-72
2022/02/12 10:22:05;;;;;;;15.93;11.23;;;;;;;-139.48;100.00;61774.03;5006697;28;20076;-72
2022/02/12 10:24:51;;;;;;;25.73;20.67;;;;;;;-139.48;100.00;61774.03;5006250;28;20107;-72
2022/02/12 10:27:37;;;;;;;15.63;12.27;;;;;;;-139.48;100.00;61774.03;5035229;28;20037;-72
2022/02/12 10:30:28;;;;;;;18.55;14.90;;;;;;;-139.48;100.00;61774.03;5034741;28;20523;-72
2022/02/12 10:33:12;;;;;;;17.05;11.98;;;;;;;-139.48;100.00;61774.03;5034653;28;20405;-71
2022/02/12 10:36:03;;;;;;;16.73;12.65;;;;;;;-139.48;100.00;61774.03;5034452;28;20048;-73
2022/02/12 10:38:51;;;;;;;18.05;12.55;;;;;;;-139.48;100.00;61774.03;5019315;28;20106;-73
2022/02/12 10:41:35;;;;;;;34.47;24.17;;;;;;;-139.48;100.00;61774.03;5036440;28;20068;-72
2022/02/12 10:44:19;;;;;;;41.13;26.23;;;;;;;-139.48;100.00;61774.03;5019741;28;20048;-73
2022/02/12 10:47:04;;;;;;;53.55;36.42;;;;;;;-139.48;100.00;61774.03;5034440;28;20076;-72
2022/02/12 10:49:49;;;;;;;88.53;56.38;;;;;;;-139.48;100.00;61774.03;5019603;28;20410;-72
2022/02/12 10:52:40;;;;;;;58.05;34.35;;;;;;;-139.48;100.00;61774.03;5005720;28;20130;-72
2022/02/12 10:55:38;;;;;;;47.67;27.45;;;;;;;-139.48;100.00;61774.03;5019337;28;20087;-72
2022/02/12 10:58:23;;;;;;;66.72;39.92;;;;;;;-139.48;100.00;61774.03;5034101;28;20127;-72
2022/02/12 11:01:07;;;;;;;32.28;19.08;;;;;;;-139.48;100.00;61774.03;5019175;28;20102;-72
2022/02/12 11:03:51;;;;;;;37.20;21.02;;;;;;;-139.48;100.00;61774.03;5018912;28;20079;-72
2022/02/12 11:06:36;;;;;;;10.73;6.85;;;;;;;-139.48;100.00;61774.03;5019150;28;20048;-72
2022/02/12 11:09:20;;;;;;;12.35;9.40;;;;;;;-139.48;100.00;61774.03;5018947;28;20051;-72
2022/02/12 11:12:08;;;;;;;12.65;10.48;;;;;;;-139.48;100.00;61774.03;5019142;28;20049;-72
2022/02/12 11:14:53;;;;;;;12.48;6.75;;;;;;;-139.48;100.00;61774.03;5033618;28;20131;-72
2022/02/12 11:17:37;;;;;;;15.98;9.57;;;;;;;-139.48;100.00;61774.03;5018884;28;20040;-72
2022/02/12 11:20:22;;;;;;;13.95;10.75;;;;;;;-139.48;100.00;61774.03;5018724;28;20099;-72
2022/02/12 11:23:18;;;;;;;11.57;8.48;;;;;;;-139.48;100.00;61774.03;5018859;28;20415;-72
2022/02/12 11:26:02;;;;;;;12.38;7.90;;;;;;;-139.48;100.00;61774.03;5033773;28;20099;-72
2022/02/12 11:28:46;;;;;;;;;;;;;;;-139.48;100.00;61774.03;5034032;28;20048;-73
2022/02/12 11:31:29;;;;;;;26.35;15.85;;;;;;;-139.48;100.00;61774.03;5018647;28;19920;-72
2022/02/12 11:34:17;;;;;;;11.65;7.68;;;;;;;-139.48;100.00;61774.03;5033577;28;20099;-72
2022/02/12 11:37:16;;;;;;;16.25;9.55;;;;;;;-139.48;100.00;61774.03;5019019;28;20080;-72
2022/02/12 11:40:14;;;;;;;14.65;10.02;;;;;;;-139.48;100.00;61774.03;5018381;28;20420;-72
2022/02/12 11:43:04;;;;;;;13.45;9.63;;;;;;;-139.48;100.00;61774.03;5018614;28;20052;-72
2022/02/12 11:45:48;;;;;;;20.52;16.92;;;;;;;-139.48;100.00;61774.03;5018707;28;20604;-72
2022/02/12 11:48:36;;;;;;;39.30;35.30;;;;;;;-139.48;100.00;61774.03;5018089;28;20049;-72
2022/02/12 11:51:30;;;;;;;17.42;13.43;;;;;;;-139.48;100.00;61774.03;5018372;28;20107;-72
2022/02/12 11:55:00;;;;;;;16.58;11.98;;;;;;;-139.48;100.00;61774.03;5004440;28;20095;-72
2022/02/12 11:57:45;;;;;;;29.10;22.75;;;;;;;-139.48;100.00;61774.03;5033340;28;20175;-72
2022/02/12 12:00:39;;;;;;;21.45;17.77;;;;;;;-139.48;100.00;61774.03;5017950;28;20520;-72
2022/02/12 12:03:23;;;;;;;12.95;10.45;;;;;;;-139.48;100.00;61774.03;5018383;28;20087;-72
2022/02/12 12:06:20;;;;;;;10.85;8.73;;;;;;;-139.48;100.00;61774.03;5017861;28;20048;-72
2022/02/12 12:09:11;;;;;;;15.52;9.45;;;;;;;-139.48;100.00;61774.03;5017978;28;20044;-72
2022/02/12 12:12:10;;;;;;;12.25;8.07;;;;;;;-139.48;100.00;61774.03;5017978;28;20060;-72
2022/02/12 12:15:20;;;;;;;16.48;11.13;;;;;;;-139.48;100.00;61774.03;5032736;28;20087;-72
2022/02/12 12:18:05;;;;;;;18.17;12.77;;;;;;;-139.48;100.00;61774.03;5018129;28;20543;-72
2022/02/12 12:20:49;;;;;;;14.02;7.82;;;;;;;-139.48;100.00;61774.03;5017705;28;20048;-72
2022/02/12 12:23:33;;;;;;;18.35;13.90;;;;;;;-139.48;100.00;61774.03;5031710;28;20433;-72
2022/02/12 12:26:17;;;;;;;10.65;8.23;;;;;;;-139.48;100.00;61774.03;5017619;28;20103;-72
2022/02/12 12:32:17;;;;;;;16.80;13.30;;;;;;;-139.48;100.00;61774.03;5020632;28;20052;-71
2022/02/12 12:35:06;;;;;;;13.05;8.73;;;;;;;-139.48;100.00;61774.03;5032604;28;20417;-72
2022/02/12 12:37:53;;;;;;;15.52;9.57;;;;;;;-139.48;100.00;61774.03;5032711;28;20052;-73
2022/02/12 12:40:37;;;;;;;12.30;8.68;;;;;;;-139.48;100.00;61774.03;5017713;28;20106;-73
2022/02/12 12:43:21;;;;;;;14.50;11.15;;;;;;;-139.48;100.00;61774.03;5033108;28;20504;-73
2022/02/12 12:46:05;;;;;;;10.25;6.43;;;;;;;-139.48;100.00;61774.03;5017699;28;20094;-73